sensor_id;sensor_type;location;lat;lon;timestamp;P1;durP1;ratioP1;P2;durP2;ratioP2
63975;SDS011;50167;47.958;21.780;2023-02-18T00:00:32;36.10;;;24.80;;
63975;SDS011;50167;47.958;21.780;2023-02-18T00:02:58;37.47;;;23.43;;
63975;SDS011;50167;47.958;21.780;2023-02-18T00:05:27;40.93;;;24.70;;
63975;SDS011;50167;47.958;21.780;2023-02-18T00:07:54;35.27;;;22.17;;
63975;SDS011;50167;47.958;21.780;2023-02-18T00:10:20;40.40;;;24.23;;
63975;SDS011;50167;47.958;21.780;2023-02-18T00:12:47;34.13;;;22.07;;
63975;SDS011;50167;47.958;21.780;2023-02-18T00:15:13;39.47;;;24.87;;
63975;SDS011;50167;47.958;21.780;2023-02-18T00:17:39;36.53;;;23.33;;
63975;SDS011;50167;47.958;21.780;2023-02-18T00:20:06;36.70;;;24.90;;
63975;SDS011;50167;47.958;21.780;2023-02-18T00:22:33;36.97;;;22.60;;
63975;SDS011;50167;47.958;21.780;2023-02-18T00:25:00;32.47;;;22.23;;
63975;SDS011;50167;47.958;21.780;2023-02-18T00:27:26;42.83;;;21.53;;
63975;SDS011;50167;47.958;21.780;2023-02-18T00:29:52;33.43;;;22.63;;
63975;SDS011;50167;47.958;21.780;2023-02-18T00:32:19;33.63;;;23.10;;
63975;SDS011;50167;47.958;21.780;2023-02-18T00:34:47;30.50;;;20.03;;
63975;SDS011;50167;47.958;21.780;2023-02-18T00:37:13;37.63;;;24.97;;
63975;SDS011;50167;47.958;21.780;2023-02-18T00:39:40;42.23;;;22.27;;
63975;SDS011;50167;47.958;21.780;2023-02-18T00:42:06;32.20;;;21.27;;
63975;SDS011;50167;47.958;21.780;2023-02-18T00:44:32;38.67;;;24.23;;
63975;SDS011;50167;47.958;21.780;2023-02-18T00:46:59;48.13;;;25.53;;
63975;SDS011;50167;47.958;21.780;2023-02-18T00:49:25;36.63;;;23.57;;
63975;SDS011;50167;47.958;21.780;2023-02-18T00:51:51;38.67;;;25.70;;
63975;SDS011;50167;47.958;21.780;2023-02-18T00:54:17;38.43;;;23.30;;
63975;SDS011;50167;47.958;21.780;2023-02-18T00:56:44;35.23;;;24.30;;
63975;SDS011;50167;47.958;21.780;2023-02-18T00:59:10;36.50;;;22.67;;
63975;SDS011;50167;47.958;21.780;2023-02-18T01:01:36;36.73;;;24.20;;
63975;SDS011;50167;47.958;21.780;2023-02-18T01:04:03;37.77;;;24.93;;
63975;SDS011;50167;47.958;21.780;2023-02-18T01:06:29;36.00;;;23.07;;
63975;SDS011;50167;47.958;21.780;2023-02-18T01:08:56;35.03;;;24.50;;
63975;SDS011;50167;47.958;21.780;2023-02-18T01:11:22;32.73;;;22.43;;
63975;SDS011;50167;47.958;21.780;2023-02-18T01:13:48;38.77;;;23.67;;
63975;SDS011;50167;47.958;21.780;2023-02-18T01:16:15;38.67;;;23.90;;
63975;SDS011;50167;47.958;21.780;2023-02-18T01:18:41;35.00;;;23.13;;
63975;SDS011;50167;47.958;21.780;2023-02-18T01:21:08;37.37;;;24.53;;
63975;SDS011;50167;47.958;21.780;2023-02-18T01:23:38;39.87;;;24.90;;
63975;SDS011;50167;47.958;21.780;2023-02-18T01:26:07;33.57;;;24.03;;
63975;SDS011;50167;47.958;21.780;2023-02-18T01:28:34;41.73;;;25.97;;
63975;SDS011;50167;47.958;21.780;2023-02-18T01:31:05;38.63;;;24.50;;
63975;SDS011;50167;47.958;21.780;2023-02-18T01:33:34;39.83;;;26.93;;
63975;SDS011;50167;47.958;21.780;2023-02-18T01:36:01;44.07;;;27.50;;
63975;SDS011;50167;47.958;21.780;2023-02-18T01:38:28;43.03;;;28.23;;
63975;SDS011;50167;47.958;21.780;2023-02-18T01:40:55;40.50;;;25.53;;
63975;SDS011;50167;47.958;21.780;2023-02-18T01:43:21;42.53;;;26.60;;
63975;SDS011;50167;47.958;21.780;2023-02-18T01:48:36;48.23;;;27.17;;
63975;SDS011;50167;47.958;21.780;2023-02-18T01:51:25;39.20;;;25.50;;
63975;SDS011;50167;47.958;21.780;2023-02-18T01:54:00;46.10;;;31.27;;
63975;SDS011;50167;47.958;21.780;2023-02-18T01:56:47;45.00;;;28.40;;
63975;SDS011;50167;47.958;21.780;2023-02-18T01:59:22;36.85;;;25.43;;
63975;SDS011;50167;47.958;21.780;2023-02-18T02:01:52;36.67;;;23.97;;
63975;SDS011;50167;47.958;21.780;2023-02-18T02:04:20;40.13;;;24.80;;
63975;SDS011;50167;47.958;21.780;2023-02-18T02:06:46;45.43;;;29.00;;
63975;SDS011;50167;47.958;21.780;2023-02-18T02:09:14;39.97;;;26.20;;
63975;SDS011;50167;47.958;21.780;2023-02-18T02:18:04;39.33;;;24.10;;
63975;SDS011;50167;47.958;21.780;2023-02-18T02:32:48;37.23;;;22.37;;
63975;SDS011;50167;47.958;21.780;2023-02-18T02:38:25;27.90;;;18.35;;
63975;SDS011;50167;47.958;21.780;2023-02-18T02:41:12;22.90;;;16.40;;
63975;SDS011;50167;47.958;21.780;2023-02-18T02:43:50;23.40;;;16.17;;
63975;SDS011;50167;47.958;21.780;2023-02-18T02:46:29;21.50;;;14.20;;
63975;SDS011;50167;47.958;21.780;2023-02-18T02:52:06;16.50;;;10.33;;
63975;SDS011;50167;47.958;21.780;2023-02-18T02:54:38;16.80;;;9.67;;
63975;SDS011;50167;47.958;21.780;2023-02-18T02:57:06;16.03;;;11.37;;
63975;SDS011;50167;47.958;21.780;2023-02-18T02:59:47;17.40;;;11.83;;
63975;SDS011;50167;47.958;21.780;2023-02-18T03:08:46;18.73;;;11.10;;
63975;SDS011;50167;47.958;21.780;2023-02-18T03:11:11;16.37;;;11.67;;
63975;SDS011;50167;47.958;21.780;2023-02-18T03:19:22;18.23;;;10.58;;
63975;SDS011;50167;47.958;21.780;2023-02-18T03:22:12;16.97;;;11.10;;
63975;SDS011;50167;47.958;21.780;2023-02-18T03:24:56;16.57;;;10.93;;
63975;SDS011;50167;47.958;21.780;2023-02-18T03:27:25;27.43;;;10.97;;
63975;SDS011;50167;47.958;21.780;2023-02-18T03:32:42;15.60;;;10.47;;
63975;SDS011;50167;47.958;21.780;2023-02-18T03:35:16;17.20;;;11.83;;
63975;SDS011;50167;47.958;21.780;2023-02-18T03:37:47;18.23;;;11.97;;
63975;SDS011;50167;47.958;21.780;2023-02-18T03:40:16;18.30;;;10.03;;
63975;SDS011;50167;47.958;21.780;2023-02-18T03:42:43;15.17;;;10.80;;
63975;SDS011;50167;47.958;21.780;2023-02-18T03:45:10;13.07;;;9.60;;
63975;SDS011;50167;47.958;21.780;2023-02-18T03:47:36;16.63;;;11.27;;
63975;SDS011;50167;47.958;21.780;2023-02-18T03:50:02;14.03;;;10.47;;
63975;SDS011;50167;47.958;21.780;2023-02-18T03:52:30;16.63;;;11.00;;
63975;SDS011;50167;47.958;21.780;2023-02-18T03:54:56;14.90;;;9.07;;
63975;SDS011;50167;47.958;21.780;2023-02-18T03:57:22;16.17;;;10.50;;
63975;SDS011;50167;47.958;21.780;2023-02-18T03:59:48;13.70;;;9.97;;
63975;SDS011;50167;47.958;21.780;2023-02-18T04:02:15;16.50;;;11.23;;
63975;SDS011;50167;47.958;21.780;2023-02-18T04:04:43;14.47;;;9.33;;
63975;SDS011;50167;47.958;21.780;2023-02-18T04:07:09;12.77;;;9.77;;
63975;SDS011;50167;47.958;21.780;2023-02-18T04:09:35;15.47;;;10.63;;
63975;SDS011;50167;47.958;21.780;2023-02-18T04:12:02;14.80;;;9.50;;
63975;SDS011;50167;47.958;21.780;2023-02-18T04:14:28;12.73;;;9.63;;
63975;SDS011;50167;47.958;21.780;2023-02-18T04:16:55;16.83;;;9.43;;
63975;SDS011;50167;47.958;21.780;2023-02-18T04:19:21;14.57;;;8.87;;
63975;SDS011;50167;47.958;21.780;2023-02-18T04:21:48;15.33;;;8.63;;
63975;SDS011;50167;47.958;21.780;2023-02-18T04:24:14;17.03;;;9.57;;
63975;SDS011;50167;47.958;21.780;2023-02-18T04:26:40;13.80;;;9.80;;
63975;SDS011;50167;47.958;21.780;2023-02-18T04:29:06;12.50;;;8.43;;
63975;SDS011;50167;47.958;21.780;2023-02-18T04:31:33;13.60;;;7.73;;
63975;SDS011;50167;47.958;21.780;2023-02-18T04:33:59;10.90;;;8.33;;
63975;SDS011;50167;47.958;21.780;2023-02-18T04:36:26;11.23;;;8.83;;
63975;SDS011;50167;47.958;21.780;2023-02-18T04:38:52;12.93;;;8.87;;
63975;SDS011;50167;47.958;21.780;2023-02-18T04:41:18;11.90;;;8.50;;
63975;SDS011;50167;47.958;21.780;2023-02-18T04:43:44;12.80;;;9.07;;
63975;SDS011;50167;47.958;21.780;2023-02-18T04:46:11;13.63;;;8.37;;
63975;SDS011;50167;47.958;21.780;2023-02-18T04:48:37;11.47;;;8.33;;
63975;SDS011;50167;47.958;21.780;2023-02-18T04:51:04;10.13;;;7.27;;
63975;SDS011;50167;47.958;21.780;2023-02-18T04:53:30;10.57;;;7.73;;
63975;SDS011;50167;47.958;21.780;2023-02-18T04:55:57;11.90;;;7.23;;
63975;SDS011;50167;47.958;21.780;2023-02-18T04:58:23;10.30;;;7.60;;
63975;SDS011;50167;47.958;21.780;2023-02-18T05:00:50;12.77;;;8.07;;
63975;SDS011;50167;47.958;21.780;2023-02-18T05:03:18;10.57;;;7.30;;
63975;SDS011;50167;47.958;21.780;2023-02-18T05:05:45;9.27;;;6.93;;
63975;SDS011;50167;47.958;21.780;2023-02-18T05:08:11;10.00;;;8.00;;
63975;SDS011;50167;47.958;21.780;2023-02-18T05:10:37;11.13;;;7.03;;
63975;SDS011;50167;47.958;21.780;2023-02-18T05:13:04;13.63;;;8.50;;
63975;SDS011;50167;47.958;21.780;2023-02-18T05:15:30;13.40;;;7.47;;
63975;SDS011;50167;47.958;21.780;2023-02-18T05:17:56;13.57;;;6.80;;
63975;SDS011;50167;47.958;21.780;2023-02-18T05:20:23;11.30;;;7.37;;
63975;SDS011;50167;47.958;21.780;2023-02-18T05:22:49;8.93;;;6.57;;
63975;SDS011;50167;47.958;21.780;2023-02-18T05:25:16;11.90;;;6.10;;
63975;SDS011;50167;47.958;21.780;2023-02-18T05:27:42;8.50;;;6.13;;
63975;SDS011;50167;47.958;21.780;2023-02-18T05:30:08;9.30;;;6.40;;
63975;SDS011;50167;47.958;21.780;2023-02-18T05:32:35;11.43;;;6.93;;
63975;SDS011;50167;47.958;21.780;2023-02-18T05:35:02;9.80;;;5.80;;
63975;SDS011;50167;47.958;21.780;2023-02-18T05:37:28;11.97;;;5.87;;
63975;SDS011;50167;47.958;21.780;2023-02-18T05:39:54;10.60;;;6.07;;
63975;SDS011;50167;47.958;21.780;2023-02-18T05:42:20;7.57;;;5.07;;
63975;SDS011;50167;47.958;21.780;2023-02-18T05:44:47;7.37;;;5.40;;
63975;SDS011;50167;47.958;21.780;2023-02-18T05:47:14;7.90;;;6.40;;
63975;SDS011;50167;47.958;21.780;2023-02-18T05:49:41;6.83;;;5.80;;
63975;SDS011;50167;47.958;21.780;2023-02-18T05:52:08;8.87;;;5.17;;
63975;SDS011;50167;47.958;21.780;2023-02-18T05:54:35;7.80;;;5.33;;
63975;SDS011;50167;47.958;21.780;2023-02-18T05:57:02;9.40;;;5.50;;
63975;SDS011;50167;47.958;21.780;2023-02-18T05:59:29;7.93;;;5.20;;
63975;SDS011;50167;47.958;21.780;2023-02-18T06:01:56;12.23;;;7.20;;
63975;SDS011;50167;47.958;21.780;2023-02-18T06:04:22;8.83;;;6.67;;
63975;SDS011;50167;47.958;21.780;2023-02-18T06:06:49;10.57;;;7.30;;
63975;SDS011;50167;47.958;21.780;2023-02-18T06:09:16;11.97;;;7.47;;
63975;SDS011;50167;47.958;21.780;2023-02-18T06:11:42;9.07;;;6.80;;
63975;SDS011;50167;47.958;21.780;2023-02-18T06:14:09;9.37;;;7.27;;
63975;SDS011;50167;47.958;21.780;2023-02-18T06:16:35;9.10;;;6.80;;
63975;SDS011;50167;47.958;21.780;2023-02-18T06:19:01;12.63;;;8.23;;
63975;SDS011;50167;47.958;21.780;2023-02-18T06:21:28;11.83;;;7.93;;
63975;SDS011;50167;47.958;21.780;2023-02-18T06:23:55;16.43;;;8.73;;
63975;SDS011;50167;47.958;21.780;2023-02-18T06:26:21;15.53;;;9.13;;
63975;SDS011;50167;47.958;21.780;2023-02-18T06:28:47;14.83;;;9.33;;
63975;SDS011;50167;47.958;21.780;2023-02-18T06:31:14;13.40;;;9.57;;
63975;SDS011;50167;47.958;21.780;2023-02-18T06:33:41;14.00;;;9.50;;
63975;SDS011;50167;47.958;21.780;2023-02-18T06:36:08;16.10;;;9.40;;
63975;SDS011;50167;47.958;21.780;2023-02-18T06:38:37;12.77;;;8.80;;
63975;SDS011;50167;47.958;21.780;2023-02-18T06:41:05;11.70;;;8.33;;
63975;SDS011;50167;47.958;21.780;2023-02-18T06:43:32;12.60;;;8.70;;
63975;SDS011;50167;47.958;21.780;2023-02-18T06:45:59;13.53;;;9.20;;
63975;SDS011;50167;47.958;21.780;2023-02-18T06:48:25;15.73;;;9.00;;
63975;SDS011;50167;47.958;21.780;2023-02-18T06:50:52;15.47;;;8.93;;
63975;SDS011;50167;47.958;21.780;2023-02-18T06:53:18;12.07;;;8.50;;
63975;SDS011;50167;47.958;21.780;2023-02-18T06:55:44;13.43;;;9.50;;
63975;SDS011;50167;47.958;21.780;2023-02-18T06:58:11;14.10;;;8.90;;
63975;SDS011;50167;47.958;21.780;2023-02-18T07:00:38;16.90;;;10.37;;
63975;SDS011;50167;47.958;21.780;2023-02-18T07:03:05;17.10;;;11.33;;
63975;SDS011;50167;47.958;21.780;2023-02-18T07:05:32;24.53;;;14.17;;
63975;SDS011;50167;47.958;21.780;2023-02-18T07:07:58;29.17;;;18.43;;
63975;SDS011;50167;47.958;21.780;2023-02-18T07:10:25;32.50;;;20.93;;
63975;SDS011;50167;47.958;21.780;2023-02-18T07:12:51;28.20;;;20.07;;
63975;SDS011;50167;47.958;21.780;2023-02-18T07:15:18;39.67;;;21.97;;
63975;SDS011;50167;47.958;21.780;2023-02-18T07:17:46;31.93;;;20.60;;
63975;SDS011;50167;47.958;21.780;2023-02-18T07:20:12;35.77;;;21.50;;
63975;SDS011;50167;47.958;21.780;2023-02-18T07:22:38;32.80;;;20.03;;
63975;SDS011;50167;47.958;21.780;2023-02-18T07:25:05;48.00;;;30.17;;
63975;SDS011;50167;47.958;21.780;2023-02-18T07:27:32;44.63;;;29.27;;
63975;SDS011;50167;47.958;21.780;2023-02-18T07:29:59;40.10;;;27.10;;
63975;SDS011;50167;47.958;21.780;2023-02-18T07:32:25;56.97;;;34.43;;
63975;SDS011;50167;47.958;21.780;2023-02-18T07:34:51;60.53;;;39.17;;
63975;SDS011;50167;47.958;21.780;2023-02-18T07:37:18;59.87;;;36.20;;
63975;SDS011;50167;47.958;21.780;2023-02-18T07:39:45;45.00;;;29.37;;
63975;SDS011;50167;47.958;21.780;2023-02-18T07:42:12;45.73;;;28.40;;
63975;SDS011;50167;47.958;21.780;2023-02-18T07:44:39;46.43;;;30.33;;
63975;SDS011;50167;47.958;21.780;2023-02-18T07:47:07;53.13;;;37.60;;
63975;SDS011;50167;47.958;21.780;2023-02-18T07:49:37;54.55;;;38.28;;
63975;SDS011;50167;47.958;21.780;2023-02-18T07:52:03;51.60;;;36.77;;
63975;SDS011;50167;47.958;21.780;2023-02-18T07:54:30;49.10;;;35.70;;
63975;SDS011;50167;47.958;21.780;2023-02-18T07:56:56;44.40;;;30.67;;
63975;SDS011;50167;47.958;21.780;2023-02-18T07:59:22;42.63;;;30.30;;
63975;SDS011;50167;47.958;21.780;2023-02-18T08:01:48;47.17;;;31.87;;
63975;SDS011;50167;47.958;21.780;2023-02-18T08:04:15;43.20;;;31.33;;
63975;SDS011;50167;47.958;21.780;2023-02-18T08:06:43;73.60;;;47.40;;
63975;SDS011;50167;47.958;21.780;2023-02-18T08:09:12;70.13;;;46.40;;
63975;SDS011;50167;47.958;21.780;2023-02-18T08:11:39;38.50;;;25.73;;
63975;SDS011;50167;47.958;21.780;2023-02-18T08:14:05;26.40;;;17.40;;
63975;SDS011;50167;47.958;21.780;2023-02-18T08:16:31;29.97;;;19.13;;
63975;SDS011;50167;47.958;21.780;2023-02-18T08:18:58;43.23;;;23.47;;
63975;SDS011;50167;47.958;21.780;2023-02-18T08:21:27;37.90;;;19.17;;
63975;SDS011;50167;47.958;21.780;2023-02-18T08:23:53;40.10;;;22.27;;
63975;SDS011;50167;47.958;21.780;2023-02-18T08:26:21;27.37;;;17.17;;
63975;SDS011;50167;47.958;21.780;2023-02-18T08:28:48;24.30;;;17.37;;
63975;SDS011;50167;47.958;21.780;2023-02-18T08:31:22;22.10;;;12.43;;
63975;SDS011;50167;47.958;21.780;2023-02-18T08:33:52;17.97;;;10.80;;
63975;SDS011;50167;47.958;21.780;2023-02-18T08:36:20;20.60;;;10.40;;
63975;SDS011;50167;47.958;21.780;2023-02-18T08:38:47;21.40;;;12.47;;
63975;SDS011;50167;47.958;21.780;2023-02-18T08:41:14;15.77;;;9.50;;
63975;SDS011;50167;47.958;21.780;2023-02-18T08:43:40;10.77;;;7.13;;
63975;SDS011;50167;47.958;21.780;2023-02-18T08:46:07;10.57;;;6.07;;
63975;SDS011;50167;47.958;21.780;2023-02-18T08:48:34;10.93;;;5.00;;
63975;SDS011;50167;47.958;21.780;2023-02-18T08:51:09;10.70;;;5.43;;
63975;SDS011;50167;47.958;21.780;2023-02-18T08:53:40;16.03;;;9.07;;
63975;SDS011;50167;47.958;21.780;2023-02-18T08:56:07;15.80;;;8.53;;
63975;SDS011;50167;47.958;21.780;2023-02-18T08:58:34;7.73;;;5.43;;
63975;SDS011;50167;47.958;21.780;2023-02-18T09:01:05;8.63;;;4.80;;
63975;SDS011;50167;47.958;21.780;2023-02-18T09:03:33;19.87;;;4.73;;
63975;SDS011;50167;47.958;21.780;2023-02-18T09:06:00;9.10;;;3.67;;
63975;SDS011;50167;47.958;21.780;2023-02-18T09:08:27;4.73;;;3.30;;
63975;SDS011;50167;47.958;21.780;2023-02-18T09:10:55;4.57;;;2.83;;
63975;SDS011;50167;47.958;21.780;2023-02-18T09:13:23;5.63;;;4.43;;
63975;SDS011;50167;47.958;21.780;2023-02-18T09:15:57;7.27;;;3.33;;
63975;SDS011;50167;47.958;21.780;2023-02-18T09:18:29;5.30;;;3.70;;
63975;SDS011;50167;47.958;21.780;2023-02-18T09:20:56;3.80;;;2.97;;
63975;SDS011;50167;47.958;21.780;2023-02-18T09:23:25;10.80;;;6.13;;
63975;SDS011;50167;47.958;21.780;2023-02-18T09:25:54;5.67;;;3.10;;
63975;SDS011;50167;47.958;21.780;2023-02-18T09:28:21;6.77;;;3.80;;
63975;SDS011;50167;47.958;21.780;2023-02-18T09:30:48;4.07;;;2.90;;
63975;SDS011;50167;47.958;21.780;2023-02-18T09:33:14;5.50;;;2.90;;
63975;SDS011;50167;47.958;21.780;2023-02-18T09:35:42;3.50;;;2.87;;
63975;SDS011;50167;47.958;21.780;2023-02-18T09:38:10;3.73;;;2.50;;
63975;SDS011;50167;47.958;21.780;2023-02-18T09:40:41;7.47;;;3.03;;
63975;SDS011;50167;47.958;21.780;2023-02-18T09:43:18;3.77;;;3.03;;
63975;SDS011;50167;47.958;21.780;2023-02-18T09:45:57;3.73;;;2.50;;
63975;SDS011;50167;47.958;21.780;2023-02-18T09:48:26;3.47;;;3.00;;
63975;SDS011;50167;47.958;21.780;2023-02-18T09:50:55;4.15;;;2.67;;
63975;SDS011;50167;47.958;21.780;2023-02-18T09:53:23;3.17;;;2.70;;
63975;SDS011;50167;47.958;21.780;2023-02-18T09:55:50;4.67;;;3.17;;
63975;SDS011;50167;47.958;21.780;2023-02-18T09:58:27;6.63;;;3.33;;
63975;SDS011;50167;47.958;21.780;2023-02-18T10:03:31;7.73;;;3.40;;
63975;SDS011;50167;47.958;21.780;2023-02-18T10:06:02;3.23;;;2.50;;
63975;SDS011;50167;47.958;21.780;2023-02-18T10:08:41;3.50;;;2.70;;
63975;SDS011;50167;47.958;21.780;2023-02-18T10:11:11;3.25;;;2.55;;
63975;SDS011;50167;47.958;21.780;2023-02-18T10:13:44;5.67;;;3.37;;
63975;SDS011;50167;47.958;21.780;2023-02-18T10:16:14;5.10;;;3.50;;
63975;SDS011;50167;47.958;21.780;2023-02-18T10:18:45;5.03;;;3.50;;
63975;SDS011;50167;47.958;21.780;2023-02-18T10:21:14;6.33;;;3.72;;
63975;SDS011;50167;47.958;21.780;2023-02-18T10:26:40;8.93;;;4.40;;
63975;SDS011;50167;47.958;21.780;2023-02-18T10:29:13;5.87;;;4.30;;
63975;SDS011;50167;47.958;21.780;2023-02-18T10:31:43;6.90;;;4.60;;
63975;SDS011;50167;47.958;21.780;2023-02-18T10:40:30;6.03;;;4.40;;
63975;SDS011;50167;47.958;21.780;2023-02-18T10:43:20;3.70;;;3.03;;
63975;SDS011;50167;47.958;21.780;2023-02-18T10:51:47;5.90;;;3.57;;
63975;SDS011;50167;47.958;21.780;2023-02-18T10:54:16;5.03;;;3.55;;
63975;SDS011;50167;47.958;21.780;2023-02-18T10:56:48;14.77;;;6.67;;
63975;SDS011;50167;47.958;21.780;2023-02-18T10:59:23;3.23;;;2.70;;
63975;SDS011;50167;47.958;21.780;2023-02-18T11:01:57;17.83;;;7.30;;
63975;SDS011;50167;47.958;21.780;2023-02-18T11:04:36;10.33;;;4.67;;
63975;SDS011;50167;47.958;21.780;2023-02-18T11:07:15;12.30;;;5.83;;
63975;SDS011;50167;47.958;21.780;2023-02-18T11:09:48;18.40;;;8.53;;
63975;SDS011;50167;47.958;21.780;2023-02-18T11:12:45;6.77;;;4.27;;
63975;SDS011;50167;47.958;21.780;2023-02-18T11:15:14;35.10;;;16.13;;
63975;SDS011;50167;47.958;21.780;2023-02-18T11:17:48;10.60;;;5.70;;
63975;SDS011;50167;47.958;21.780;2023-02-18T11:26:04;7.30;;;4.33;;
63975;SDS011;50167;47.958;21.780;2023-02-18T11:28:30;6.42;;;4.20;;
63975;SDS011;50167;47.958;21.780;2023-02-18T11:31:16;6.67;;;3.30;;
63975;SDS011;50167;47.958;21.780;2023-02-18T11:33:55;5.20;;;3.57;;
63975;SDS011;50167;47.958;21.780;2023-02-18T11:36:29;3.37;;;2.53;;
63975;SDS011;50167;47.958;21.780;2023-02-18T11:41:56;5.63;;;3.83;;
63975;SDS011;50167;47.958;21.780;2023-02-18T11:48:06;6.97;;;3.40;;
63975;SDS011;50167;47.958;21.780;2023-02-18T11:50:29;6.22;;;3.90;;
63975;SDS011;50167;47.958;21.780;2023-02-18T11:56:44;2.73;;;2.20;;
63975;SDS011;50167;47.958;21.780;2023-02-18T11:59:25;5.80;;;2.72;;
63975;SDS011;50167;47.958;21.780;2023-02-18T12:07:21;3.73;;;2.40;;
63975;SDS011;50167;47.958;21.780;2023-02-18T12:10:03;7.60;;;3.47;;
63975;SDS011;50167;47.958;21.780;2023-02-18T12:12:35;4.93;;;2.70;;
63975;SDS011;50167;47.958;21.780;2023-02-18T12:15:16;4.50;;;2.45;;
63975;SDS011;50167;47.958;21.780;2023-02-18T12:20:48;5.17;;;3.20;;
63975;SDS011;50167;47.958;21.780;2023-02-18T12:26:28;10.10;;;6.53;;
63975;SDS011;50167;47.958;21.780;2023-02-18T12:29:00;5.62;;;3.60;;
63975;SDS011;50167;47.958;21.780;2023-02-18T12:46:20;4.47;;;2.80;;
63975;SDS011;50167;47.958;21.780;2023-02-18T13:07:34;4.17;;;2.50;;
63975;SDS011;50167;47.958;21.780;2023-02-18T13:13:17;6.90;;;4.20;;
63975;SDS011;50167;47.958;21.780;2023-02-18T13:15:53;5.93;;;4.60;;
63975;SDS011;50167;47.958;21.780;2023-02-18T13:18:31;9.50;;;6.37;;
63975;SDS011;50167;47.958;21.780;2023-02-18T13:21:05;8.97;;;5.27;;
63975;SDS011;50167;47.958;21.780;2023-02-18T13:24:25;3.57;;;2.60;;
63975;SDS011;50167;47.958;21.780;2023-02-18T13:26:28;3.87;;;2.70;;
63975;SDS011;50167;47.958;21.780;2023-02-18T13:35:16;2.77;;;2.15;;
63975;SDS011;50167;47.958;21.780;2023-02-18T13:40:54;5.43;;;4.60;;
63975;SDS011;50167;47.958;21.780;2023-02-18T13:51:27;5.10;;;2.70;;
63975;SDS011;50167;47.958;21.780;2023-02-18T13:54:05;3.35;;;2.08;;
63975;SDS011;50167;47.958;21.780;2023-02-18T13:56:58;5.90;;;3.67;;
63975;SDS011;50167;47.958;21.780;2023-02-18T13:59:39;4.72;;;3.47;;
63975;SDS011;50167;47.958;21.780;2023-02-18T14:04:54;5.83;;;3.57;;
63975;SDS011;50167;47.958;21.780;2023-02-18T14:20:45;4.87;;;3.97;;
63975;SDS011;50167;47.958;21.780;2023-02-18T14:25:53;4.03;;;3.00;;
63975;SDS011;50167;47.958;21.780;2023-02-18T14:28:40;4.97;;;3.47;;
63975;SDS011;50167;47.958;21.780;2023-02-18T14:38:00;6.63;;;4.37;;
63975;SDS011;50167;47.958;21.780;2023-02-18T14:43:59;5.00;;;3.03;;
63975;SDS011;50167;47.958;21.780;2023-02-18T14:46:32;9.03;;;2.80;;
63975;SDS011;50167;47.958;21.780;2023-02-18T14:49:24;6.63;;;3.07;;
63975;SDS011;50167;47.958;21.780;2023-02-18T14:51:43;3.77;;;3.12;;
63975;SDS011;50167;47.958;21.780;2023-02-18T14:54:16;3.23;;;2.33;;
63975;SDS011;50167;47.958;21.780;2023-02-18T14:56:55;3.37;;;2.33;;
63975;SDS011;50167;47.958;21.780;2023-02-18T14:59:26;3.63;;;2.10;;
63975;SDS011;50167;47.958;21.780;2023-02-18T15:01:56;3.67;;;2.33;;
63975;SDS011;50167;47.958;21.780;2023-02-18T15:04:23;5.07;;;2.50;;
63975;SDS011;50167;47.958;21.780;2023-02-18T15:06:58;4.80;;;2.17;;
63975;SDS011;50167;47.958;21.780;2023-02-18T15:09:28;5.77;;;3.30;;
63975;SDS011;50167;47.958;21.780;2023-02-18T15:14:32;5.77;;;3.60;;
63975;SDS011;50167;47.958;21.780;2023-02-18T15:17:06;6.13;;;4.20;;
63975;SDS011;50167;47.958;21.780;2023-02-18T15:19:40;4.67;;;2.87;;
63975;SDS011;50167;47.958;21.780;2023-02-18T15:22:14;5.07;;;3.47;;
63975;SDS011;50167;47.958;21.780;2023-02-18T15:24:50;6.33;;;4.50;;
63975;SDS011;50167;47.958;21.780;2023-02-18T15:27:29;8.73;;;5.17;;
63975;SDS011;50167;47.958;21.780;2023-02-18T15:32:53;17.43;;;8.50;;
63975;SDS011;50167;47.958;21.780;2023-02-18T15:35:25;9.13;;;5.00;;
63975;SDS011;50167;47.958;21.780;2023-02-18T15:37:56;6.33;;;3.37;;
63975;SDS011;50167;47.958;21.780;2023-02-18T15:40:30;3.87;;;2.47;;
63975;SDS011;50167;47.958;21.780;2023-02-18T15:43:00;2.83;;;2.00;;
63975;SDS011;50167;47.958;21.780;2023-02-18T15:45:32;6.53;;;3.70;;
63975;SDS011;50167;47.958;21.780;2023-02-18T15:48:03;8.70;;;4.83;;
63975;SDS011;50167;47.958;21.780;2023-02-18T15:50:31;7.23;;;4.37;;
63975;SDS011;50167;47.958;21.780;2023-02-18T15:53:08;5.77;;;3.93;;
63975;SDS011;50167;47.958;21.780;2023-02-18T15:55:42;5.00;;;3.60;;
63975;SDS011;50167;47.958;21.780;2023-02-18T15:58:18;5.15;;;3.47;;
63975;SDS011;50167;47.958;21.780;2023-02-18T16:00:58;6.93;;;3.90;;
63975;SDS011;50167;47.958;21.780;2023-02-18T16:03:29;4.00;;;2.33;;
63975;SDS011;50167;47.958;21.780;2023-02-18T16:06:11;6.63;;;4.33;;
63975;SDS011;50167;47.958;21.780;2023-02-18T16:11:59;8.20;;;4.53;;
63975;SDS011;50167;47.958;21.780;2023-02-18T16:17:22;4.87;;;2.87;;
63975;SDS011;50167;47.958;21.780;2023-02-18T16:19:52;5.47;;;3.40;;
63975;SDS011;50167;47.958;21.780;2023-02-18T16:22:32;11.20;;;6.73;;
63975;SDS011;50167;47.958;21.780;2023-02-18T16:27:53;6.97;;;4.22;;
63975;SDS011;50167;47.958;21.780;2023-02-18T16:30:27;6.17;;;3.67;;
63975;SDS011;50167;47.958;21.780;2023-02-18T16:32:57;3.33;;;2.03;;
63975;SDS011;50167;47.958;21.780;2023-02-18T16:35:29;3.13;;;1.93;;
63975;SDS011;50167;47.958;21.780;2023-02-18T16:43:10;6.50;;;3.90;;
63975;SDS011;50167;47.958;21.780;2023-02-18T16:45:43;5.10;;;3.40;;
63975;SDS011;50167;47.958;21.780;2023-02-18T16:48:32;4.03;;;2.73;;
63975;SDS011;50167;47.958;21.780;2023-02-18T16:51:12;3.77;;;2.70;;
63975;SDS011;50167;47.958;21.780;2023-02-18T16:53:44;6.47;;;3.40;;
63975;SDS011;50167;47.958;21.780;2023-02-18T16:56:15;8.10;;;3.57;;
63975;SDS011;50167;47.958;21.780;2023-02-18T16:58:41;11.63;;;7.62;;
63975;SDS011;50167;47.958;21.780;2023-02-18T17:03:57;10.93;;;5.67;;
63975;SDS011;50167;47.958;21.780;2023-02-18T17:06:26;4.03;;;2.87;;
63975;SDS011;50167;47.958;21.780;2023-02-18T17:08:53;5.00;;;3.47;;
63975;SDS011;50167;47.958;21.780;2023-02-18T17:11:22;5.47;;;4.00;;
63975;SDS011;50167;47.958;21.780;2023-02-18T17:13:54;4.40;;;3.27;;
63975;SDS011;50167;47.958;21.780;2023-02-18T17:16:25;5.50;;;2.93;;
63975;SDS011;50167;47.958;21.780;2023-02-18T17:18:52;7.33;;;5.40;;
63975;SDS011;50167;47.958;21.780;2023-02-18T17:21:19;10.83;;;7.03;;
63975;SDS011;50167;47.958;21.780;2023-02-18T17:23:49;13.38;;;9.80;;
63975;SDS011;50167;47.958;21.780;2023-02-18T17:29:54;7.07;;;5.40;;
63975;SDS011;50167;47.958;21.780;2023-02-18T17:32:20;8.13;;;4.57;;
63975;SDS011;50167;47.958;21.780;2023-02-18T17:34:47;7.27;;;4.20;;
63975;SDS011;50167;47.958;21.780;2023-02-18T17:37:13;8.77;;;4.93;;
63975;SDS011;50167;47.958;21.780;2023-02-18T17:39:39;6.47;;;4.00;;
63975;SDS011;50167;47.958;21.780;2023-02-18T17:42:09;5.80;;;3.60;;
63975;SDS011;50167;47.958;21.780;2023-02-18T17:44:36;7.20;;;3.73;;
63975;SDS011;50167;47.958;21.780;2023-02-18T17:47:04;7.97;;;4.50;;
63975;SDS011;50167;47.958;21.780;2023-02-18T17:49:30;7.30;;;4.07;;
63975;SDS011;50167;47.958;21.780;2023-02-18T17:51:56;11.07;;;6.00;;
63975;SDS011;50167;47.958;21.780;2023-02-18T18:01:46;10.73;;;5.33;;